Forside
METAR-TAF:

METAR-TAF

Lufthavne :

Algier, Algeriet

Breddekreds: 36-43N, længdekreds: 003-15E, højde: 25 m

Aktuelle vejr

Denne rapport blev lavet for 26 minutter siden, kl. 00:00 UTC
Vind 3 kt fra sydsydøst
Temperatur 18°C
Fugtighed 94%
Tryk 1016 hPa
Sigt 10 km eller mere
Nogle få skyer i en højde af 2000 ft

METAR: DAAG 200000Z 16003KT 9999 FEW020 18/17 Q1016

Tid: 01:26 (00:26 UTC)

Vejrudsigter

Denne rapport blev lavet for 1 time og 26 minutter siden, kl. 23:00 UTC
Foreløbig gælder fra 20 på 00 UTC til 20 på 24 UTC
Vind 8 kt fra østnordøst
Sigt 10 km eller mere
Nogle få skyer i en højde af 2000 ft
Sandsynlighed 30% :
Midlertidig
fra 20 på 02 UTC til 20 på 06 UTC
Sigt: 5000 m
dis
Midlertidig
fra 20 på 12 UTC til 20 på 18 UTC
Vind 18 kt fra østnordøst

TAF: DAAG 192300Z 2000/2024 06008KT 9999 FEW020 PROB30 TEMPO 2002/2006 5000 BR TEMPO 2012/2018 06018KT

Vejrobservationer og prognoser fra mere end 4000 lufthavne (METAR og TAF).

De gule og røde prikker repræsenterer de meteorologiske stationer.

Flyt musen over at se navnet på stationen.

Så klik over at se vejr observationer og prognoser.

At skifte det kort: Klik på de grønne knapper med et sort kors for at zoome ind; på den grønne knap med en bindestreg for at zoome ud; eller på de grønne pile for tilstødende kort.


METAR-TAF: